sensor_id;sensor_type;location;lat;lon;timestamp;P1;durP1;ratioP1;P2;durP2;ratioP2
10463;SDS011;5279;42.048;24.638;2023-06-22T00:01:19;5.20;;;4.80;;
10463;SDS011;5279;42.048;24.638;2023-06-22T00:03:47;5.60;;;5.10;;
10463;SDS011;5279;42.048;24.638;2023-06-22T00:06:14;4.93;;;4.43;;
10463;SDS011;5279;42.048;24.638;2023-06-22T00:08:41;5.20;;;4.70;;
10463;SDS011;5279;42.048;24.638;2023-06-22T00:11:08;4.87;;;4.47;;
10463;SDS011;5279;42.048;24.638;2023-06-22T00:13:35;5.37;;;4.87;;
10463;SDS011;5279;42.048;24.638;2023-06-22T00:16:04;4.87;;;4.47;;
10463;SDS011;5279;42.048;24.638;2023-06-22T00:18:31;5.77;;;4.93;;
10463;SDS011;5279;42.048;24.638;2023-06-22T00:20:58;5.47;;;4.97;;
10463;SDS011;5279;42.048;24.638;2023-06-22T00:23:26;5.43;;;4.93;;
10463;SDS011;5279;42.048;24.638;2023-06-22T00:25:53;6.13;;;5.53;;
10463;SDS011;5279;42.048;24.638;2023-06-22T00:28:20;7.47;;;5.50;;
10463;SDS011;5279;42.048;24.638;2023-06-22T00:30:48;5.20;;;4.70;;
10463;SDS011;5279;42.048;24.638;2023-06-22T00:33:16;4.77;;;4.37;;
10463;SDS011;5279;42.048;24.638;2023-06-22T00:35:43;6.67;;;5.17;;
10463;SDS011;5279;42.048;24.638;2023-06-22T00:38:10;5.57;;;5.07;;
10463;SDS011;5279;42.048;24.638;2023-06-22T00:40:38;5.87;;;5.37;;
10463;SDS011;5279;42.048;24.638;2023-06-22T00:43:05;5.57;;;4.87;;
10463;SDS011;5279;42.048;24.638;2023-06-22T00:45:32;6.43;;;5.83;;
10463;SDS011;5279;42.048;24.638;2023-06-22T00:48:00;5.97;;;5.10;;
10463;SDS011;5279;42.048;24.638;2023-06-22T00:50:29;5.87;;;5.37;;
10463;SDS011;5279;42.048;24.638;2023-06-22T00:53:00;5.40;;;4.90;;
10463;SDS011;5279;42.048;24.638;2023-06-22T00:55:32;6.37;;;5.77;;
10463;SDS011;5279;42.048;24.638;2023-06-22T00:58:02;5.40;;;5.00;;
10463;SDS011;5279;42.048;24.638;2023-06-22T01:00:33;5.40;;;4.90;;
10463;SDS011;5279;42.048;24.638;2023-06-22T01:03:01;5.50;;;5.00;;
10463;SDS011;5279;42.048;24.638;2023-06-22T01:05:30;5.63;;;5.13;;
10463;SDS011;5279;42.048;24.638;2023-06-22T01:08:04;6.30;;;5.70;;
10463;SDS011;5279;42.048;24.638;2023-06-22T01:10:40;5.20;;;4.70;;
10463;SDS011;5279;42.048;24.638;2023-06-22T01:13:11;5.77;;;5.27;;
10463;SDS011;5279;42.048;24.638;2023-06-22T01:15:45;6.20;;;5.60;;
10463;SDS011;5279;42.048;24.638;2023-06-22T01:21:35;5.63;;;5.13;;
10463;SDS011;5279;42.048;24.638;2023-06-22T01:24:08;6.47;;;5.90;;
10463;SDS011;5279;42.048;24.638;2023-06-22T01:26:42;6.27;;;5.67;;
10463;SDS011;5279;42.048;24.638;2023-06-22T01:29:16;6.43;;;5.83;;
10463;SDS011;5279;42.048;24.638;2023-06-22T01:31:45;6.50;;;5.90;;
10463;SDS011;5279;42.048;24.638;2023-06-22T01:34:14;5.73;;;5.23;;
10463;SDS011;5279;42.048;24.638;2023-06-22T01:36:42;5.83;;;5.33;;
10463;SDS011;5279;42.048;24.638;2023-06-22T01:39:10;5.67;;;5.17;;
10463;SDS011;5279;42.048;24.638;2023-06-22T01:41:39;5.67;;;5.17;;
10463;SDS011;5279;42.048;24.638;2023-06-22T01:44:08;6.30;;;5.70;;
10463;SDS011;5279;42.048;24.638;2023-06-22T01:46:37;5.70;;;5.20;;
10463;SDS011;5279;42.048;24.638;2023-06-22T01:49:05;5.70;;;5.20;;
10463;SDS011;5279;42.048;24.638;2023-06-22T01:51:33;6.83;;;5.70;;
10463;SDS011;5279;42.048;24.638;2023-06-22T01:54:00;6.23;;;5.67;;
10463;SDS011;5279;42.048;24.638;2023-06-22T01:56:28;5.80;;;5.30;;
10463;SDS011;5279;42.048;24.638;2023-06-22T01:58:57;6.37;;;4.97;;
10463;SDS011;5279;42.048;24.638;2023-06-22T02:01:31;6.07;;;5.50;;
10463;SDS011;5279;42.048;24.638;2023-06-22T02:04:08;5.87;;;5.37;;
10463;SDS011;5279;42.048;24.638;2023-06-22T02:06:42;5.93;;;5.43;;
10463;SDS011;5279;42.048;24.638;2023-06-22T02:09:12;6.37;;;5.77;;
10463;SDS011;5279;42.048;24.638;2023-06-22T02:11:42;6.07;;;5.57;;
10463;SDS011;5279;42.048;24.638;2023-06-22T02:14:12;5.90;;;5.40;;
10463;SDS011;5279;42.048;24.638;2023-06-22T02:16:41;6.10;;;5.17;;
10463;SDS011;5279;42.048;24.638;2023-06-22T02:19:09;5.97;;;5.37;;
10463;SDS011;5279;42.048;24.638;2023-06-22T02:21:36;5.80;;;5.30;;
10463;SDS011;5279;42.048;24.638;2023-06-22T02:24:03;5.57;;;5.07;;
10463;SDS011;5279;42.048;24.638;2023-06-22T02:26:30;5.70;;;5.20;;
10463;SDS011;5279;42.048;24.638;2023-06-22T02:28:59;5.93;;;5.33;;
10463;SDS011;5279;42.048;24.638;2023-06-22T02:31:26;5.97;;;5.47;;
10463;SDS011;5279;42.048;24.638;2023-06-22T02:33:56;6.07;;;5.57;;
10463;SDS011;5279;42.048;24.638;2023-06-22T02:36:24;5.87;;;5.37;;
10463;SDS011;5279;42.048;24.638;2023-06-22T02:38:52;8.80;;;5.40;;
10463;SDS011;5279;42.048;24.638;2023-06-22T02:41:21;6.20;;;5.60;;
10463;SDS011;5279;42.048;24.638;2023-06-22T02:43:48;7.63;;;5.57;;
10463;SDS011;5279;42.048;24.638;2023-06-22T02:46:15;5.77;;;5.27;;
10463;SDS011;5279;42.048;24.638;2023-06-22T02:48:42;6.07;;;5.47;;
10463;SDS011;5279;42.048;24.638;2023-06-22T02:51:11;6.17;;;5.63;;
10463;SDS011;5279;42.048;24.638;2023-06-22T02:53:38;6.60;;;5.67;;
10463;SDS011;5279;42.048;24.638;2023-06-22T02:56:05;5.23;;;4.70;;
10463;SDS011;5279;42.048;24.638;2023-06-22T02:58:32;5.70;;;5.17;;
10463;SDS011;5279;42.048;24.638;2023-06-22T03:01:03;6.60;;;5.80;;
10463;SDS011;5279;42.048;24.638;2023-06-22T03:03:31;5.53;;;5.03;;
10463;SDS011;5279;42.048;24.638;2023-06-22T03:05:58;6.20;;;5.60;;
10463;SDS011;5279;42.048;24.638;2023-06-22T03:08:27;5.77;;;5.23;;
10463;SDS011;5279;42.048;24.638;2023-06-22T03:10:55;5.83;;;5.10;;
10463;SDS011;5279;42.048;24.638;2023-06-22T03:13:22;5.87;;;5.27;;
10463;SDS011;5279;42.048;24.638;2023-06-22T03:15:49;5.83;;;5.23;;
10463;SDS011;5279;42.048;24.638;2023-06-22T03:18:16;5.37;;;4.97;;
10463;SDS011;5279;42.048;24.638;2023-06-22T03:20:43;5.50;;;5.00;;
10463;SDS011;5279;42.048;24.638;2023-06-22T03:23:10;5.07;;;4.57;;
10463;SDS011;5279;42.048;24.638;2023-06-22T03:25:38;5.83;;;5.23;;
10463;SDS011;5279;42.048;24.638;2023-06-22T03:28:05;5.77;;;5.27;;
10463;SDS011;5279;42.048;24.638;2023-06-22T03:30:32;5.93;;;5.43;;
10463;SDS011;5279;42.048;24.638;2023-06-22T03:32:59;5.87;;;5.37;;
10463;SDS011;5279;42.048;24.638;2023-06-22T03:35:26;6.13;;;5.53;;
10463;SDS011;5279;42.048;24.638;2023-06-22T03:37:53;6.30;;;5.67;;
10463;SDS011;5279;42.048;24.638;2023-06-22T03:40:21;6.07;;;5.33;;
10463;SDS011;5279;42.048;24.638;2023-06-22T03:42:49;6.10;;;5.50;;
10463;SDS011;5279;42.048;24.638;2023-06-22T03:45:16;5.60;;;5.10;;
10463;SDS011;5279;42.048;24.638;2023-06-22T03:47:43;5.87;;;5.23;;
10463;SDS011;5279;42.048;24.638;2023-06-22T03:50:11;5.20;;;4.80;;
10463;SDS011;5279;42.048;24.638;2023-06-22T03:52:39;5.80;;;5.30;;
10463;SDS011;5279;42.048;24.638;2023-06-22T03:55:06;5.90;;;5.37;;
10463;SDS011;5279;42.048;24.638;2023-06-22T03:57:33;5.03;;;4.63;;
10463;SDS011;5279;42.048;24.638;2023-06-22T04:00:02;6.10;;;5.10;;
10463;SDS011;5279;42.048;24.638;2023-06-22T04:02:31;5.83;;;5.13;;
10463;SDS011;5279;42.048;24.638;2023-06-22T04:04:58;5.80;;;4.90;;
10463;SDS011;5279;42.048;24.638;2023-06-22T04:07:25;5.70;;;5.20;;
10463;SDS011;5279;42.048;24.638;2023-06-22T04:09:52;5.77;;;5.27;;
10463;SDS011;5279;42.048;24.638;2023-06-22T04:12:19;5.43;;;4.93;;
10463;SDS011;5279;42.048;24.638;2023-06-22T04:14:45;5.47;;;5.03;;
10463;SDS011;5279;42.048;24.638;2023-06-22T04:17:14;5.23;;;4.80;;
10463;SDS011;5279;42.048;24.638;2023-06-22T04:19:42;6.47;;;5.37;;
10463;SDS011;5279;42.048;24.638;2023-06-22T04:22:09;5.03;;;4.53;;
10463;SDS011;5279;42.048;24.638;2023-06-22T04:24:37;5.70;;;5.13;;
10463;SDS011;5279;42.048;24.638;2023-06-22T04:27:04;6.17;;;5.37;;
10463;SDS011;5279;42.048;24.638;2023-06-22T04:29:32;5.07;;;4.63;;
10463;SDS011;5279;42.048;24.638;2023-06-22T04:31:59;4.80;;;4.40;;
10463;SDS011;5279;42.048;24.638;2023-06-22T04:34:31;5.43;;;4.93;;
10463;SDS011;5279;42.048;24.638;2023-06-22T04:36:58;5.17;;;4.67;;
10463;SDS011;5279;42.048;24.638;2023-06-22T04:39:25;5.73;;;5.23;;
10463;SDS011;5279;42.048;24.638;2023-06-22T04:41:52;5.07;;;4.67;;
10463;SDS011;5279;42.048;24.638;2023-06-22T04:44:25;5.07;;;4.57;;
10463;SDS011;5279;42.048;24.638;2023-06-22T04:46:53;5.60;;;5.10;;
10463;SDS011;5279;42.048;24.638;2023-06-22T04:49:25;5.03;;;4.60;;
10463;SDS011;5279;42.048;24.638;2023-06-22T04:51:59;5.70;;;5.07;;
10463;SDS011;5279;42.048;24.638;2023-06-22T04:54:26;5.57;;;4.93;;
10463;SDS011;5279;42.048;24.638;2023-06-22T04:56:53;4.90;;;4.47;;
10463;SDS011;5279;42.048;24.638;2023-06-22T04:59:22;5.60;;;5.10;;
10463;SDS011;5279;42.048;24.638;2023-06-22T05:01:53;5.30;;;4.80;;
10463;SDS011;5279;42.048;24.638;2023-06-22T05:04:20;6.57;;;4.87;;
10463;SDS011;5279;42.048;24.638;2023-06-22T05:06:48;5.27;;;4.73;;
10463;SDS011;5279;42.048;24.638;2023-06-22T05:09:16;5.67;;;4.60;;
10463;SDS011;5279;42.048;24.638;2023-06-22T05:11:43;5.43;;;4.33;;
10463;SDS011;5279;42.048;24.638;2023-06-22T05:14:11;5.27;;;4.87;;
10463;SDS011;5279;42.048;24.638;2023-06-22T05:16:38;5.17;;;4.67;;
10463;SDS011;5279;42.048;24.638;2023-06-22T05:19:05;5.33;;;4.83;;
10463;SDS011;5279;42.048;24.638;2023-06-22T05:21:32;5.60;;;5.10;;
10463;SDS011;5279;42.048;24.638;2023-06-22T05:23:59;5.43;;;4.93;;
10463;SDS011;5279;42.048;24.638;2023-06-22T05:26:29;5.60;;;5.03;;
10463;SDS011;5279;42.048;24.638;2023-06-22T05:28:57;6.20;;;4.93;;
10463;SDS011;5279;42.048;24.638;2023-06-22T05:31:25;4.90;;;4.50;;
10463;SDS011;5279;42.048;24.638;2023-06-22T05:33:53;5.30;;;4.80;;
10463;SDS011;5279;42.048;24.638;2023-06-22T05:36:21;6.07;;;5.50;;
10463;SDS011;5279;42.048;24.638;2023-06-22T05:38:50;5.50;;;5.00;;
10463;SDS011;5279;42.048;24.638;2023-06-22T05:41:17;5.80;;;5.30;;
10463;SDS011;5279;42.048;24.638;2023-06-22T05:43:45;6.20;;;5.70;;
10463;SDS011;5279;42.048;24.638;2023-06-22T05:46:12;6.70;;;5.90;;
10463;SDS011;5279;42.048;24.638;2023-06-22T05:48:39;5.87;;;5.37;;
10463;SDS011;5279;42.048;24.638;2023-06-22T05:51:06;7.13;;;6.50;;
10463;SDS011;5279;42.048;24.638;2023-06-22T05:53:33;7.83;;;6.50;;
10463;SDS011;5279;42.048;24.638;2023-06-22T05:56:00;7.33;;;6.43;;
10463;SDS011;5279;42.048;24.638;2023-06-22T05:58:27;7.17;;;6.33;;
10463;SDS011;5279;42.048;24.638;2023-06-22T06:00:55;7.23;;;6.17;;
10463;SDS011;5279;42.048;24.638;2023-06-22T06:03:22;6.77;;;6.17;;
10463;SDS011;5279;42.048;24.638;2023-06-22T06:05:49;6.10;;;5.60;;
10463;SDS011;5279;42.048;24.638;2023-06-22T06:08:16;6.20;;;5.60;;
10463;SDS011;5279;42.048;24.638;2023-06-22T06:10:43;6.60;;;6.10;;
10463;SDS011;5279;42.048;24.638;2023-06-22T06:13:09;5.73;;;5.23;;
10463;SDS011;5279;42.048;24.638;2023-06-22T06:15:36;7.03;;;6.30;;
10463;SDS011;5279;42.048;24.638;2023-06-22T06:18:05;6.53;;;5.93;;
10463;SDS011;5279;42.048;24.638;2023-06-22T06:20:32;6.20;;;5.60;;
10463;SDS011;5279;42.048;24.638;2023-06-22T06:22:59;6.03;;;5.53;;
10463;SDS011;5279;42.048;24.638;2023-06-22T06:25:26;5.50;;;5.00;;
10463;SDS011;5279;42.048;24.638;2023-06-22T06:27:52;7.38;;;5.70;;
10463;SDS011;5279;42.048;24.638;2023-06-22T06:30:20;5.88;;;5.28;;
10463;SDS011;5279;42.048;24.638;2023-06-22T06:32:49;6.40;;;5.80;;
10463;SDS011;5279;42.048;24.638;2023-06-22T06:35:17;5.60;;;4.97;;
10463;SDS011;5279;42.048;24.638;2023-06-22T06:37:47;6.22;;;5.63;;
10463;SDS011;5279;42.048;24.638;2023-06-22T06:40:14;5.63;;;5.05;;
10463;SDS011;5279;42.048;24.638;2023-06-22T06:42:44;5.28;;;4.72;;
10463;SDS011;5279;42.048;24.638;2023-06-22T06:45:12;6.57;;;4.38;;
10463;SDS011;5279;42.048;24.638;2023-06-22T06:47:42;4.82;;;4.43;;
10463;SDS011;5279;42.048;24.638;2023-06-22T06:50:10;5.45;;;4.95;;
10463;SDS011;5279;42.048;24.638;2023-06-22T06:52:39;5.15;;;4.63;;
10463;SDS011;5279;42.048;24.638;2023-06-22T06:55:07;5.30;;;4.75;;
10463;SDS011;5279;42.048;24.638;2023-06-22T06:57:36;5.72;;;5.22;;
10463;SDS011;5279;42.048;24.638;2023-06-22T07:00:04;4.82;;;4.43;;
10463;SDS011;5279;42.048;24.638;2023-06-22T07:02:37;5.45;;;4.90;;
10463;SDS011;5279;42.048;24.638;2023-06-22T07:05:04;4.97;;;4.57;;
10463;SDS011;5279;42.048;24.638;2023-06-22T07:07:31;4.97;;;4.57;;
10463;SDS011;5279;42.048;24.638;2023-06-22T07:10:00;4.97;;;4.47;;
10463;SDS011;5279;42.048;24.638;2023-06-22T07:12:28;4.85;;;4.45;;
10463;SDS011;5279;42.048;24.638;2023-06-22T07:15:00;4.85;;;4.45;;
10463;SDS011;5279;42.048;24.638;2023-06-22T07:17:28;4.47;;;4.10;;
10463;SDS011;5279;42.048;24.638;2023-06-22T07:19:55;4.38;;;4.07;;
10463;SDS011;5279;42.048;24.638;2023-06-22T07:22:22;5.38;;;4.88;;
10463;SDS011;5279;42.048;24.638;2023-06-22T07:24:49;4.70;;;4.30;;
10463;SDS011;5279;42.048;24.638;2023-06-22T07:27:17;4.70;;;4.30;;
10463;SDS011;5279;42.048;24.638;2023-06-22T07:29:45;5.70;;;3.80;;
10463;SDS011;5279;42.048;24.638;2023-06-22T07:32:11;4.82;;;4.32;;
10463;SDS011;5279;42.048;24.638;2023-06-22T07:34:38;4.57;;;4.18;;
10463;SDS011;5279;42.048;24.638;2023-06-22T07:37:06;4.68;;;4.28;;
10463;SDS011;5279;42.048;24.638;2023-06-22T07:39:33;4.80;;;4.40;;
10463;SDS011;5279;42.048;24.638;2023-06-22T07:42:00;4.85;;;4.45;;
10463;SDS011;5279;42.048;24.638;2023-06-22T07:44:28;5.63;;;4.40;;
10463;SDS011;5279;42.048;24.638;2023-06-22T07:46:55;4.22;;;3.70;;
10463;SDS011;5279;42.048;24.638;2023-06-22T07:49:22;5.35;;;4.00;;
10463;SDS011;5279;42.048;24.638;2023-06-22T07:51:49;4.57;;;4.18;;
10463;SDS011;5279;42.048;24.638;2023-06-22T07:54:15;4.30;;;4.00;;
10463;SDS011;5279;42.048;24.638;2023-06-22T07:56:42;4.70;;;4.32;;
10463;SDS011;5279;42.048;24.638;2023-06-22T07:59:09;4.40;;;4.03;;
10463;SDS011;5279;42.048;24.638;2023-06-22T08:01:38;4.90;;;4.50;;
10463;SDS011;5279;42.048;24.638;2023-06-22T08:04:05;4.28;;;3.90;;
10463;SDS011;5279;42.048;24.638;2023-06-22T08:06:32;4.70;;;4.30;;
10463;SDS011;5279;42.048;24.638;2023-06-22T08:08:59;4.80;;;4.40;;
10463;SDS011;5279;42.048;24.638;2023-06-22T08:11:25;4.72;;;4.32;;
10463;SDS011;5279;42.048;24.638;2023-06-22T08:13:53;4.57;;;4.18;;
10463;SDS011;5279;42.048;24.638;2023-06-22T08:16:23;4.88;;;4.47;;
10463;SDS011;5279;42.048;24.638;2023-06-22T08:18:51;4.63;;;4.22;;
10463;SDS011;5279;42.048;24.638;2023-06-22T08:21:18;4.57;;;4.18;;
10463;SDS011;5279;42.048;24.638;2023-06-22T08:23:45;5.07;;;4.53;;
10463;SDS011;5279;42.048;24.638;2023-06-22T08:26:14;4.90;;;4.50;;
10463;SDS011;5279;42.048;24.638;2023-06-22T08:28:41;5.35;;;4.00;;
10463;SDS011;5279;42.048;24.638;2023-06-22T08:31:07;5.43;;;4.25;;
10463;SDS011;5279;42.048;24.638;2023-06-22T08:33:39;4.80;;;4.40;;
10463;SDS011;5279;42.048;24.638;2023-06-22T08:36:09;4.80;;;4.25;;
10463;SDS011;5279;42.048;24.638;2023-06-22T08:38:38;4.95;;;4.55;;
10463;SDS011;5279;42.048;24.638;2023-06-22T08:41:05;4.57;;;4.00;;
10463;SDS011;5279;42.048;24.638;2023-06-22T08:43:32;4.50;;;4.10;;
10463;SDS011;5279;42.048;24.638;2023-06-22T08:45:58;5.20;;;4.57;;
10463;SDS011;5279;42.048;24.638;2023-06-22T08:48:26;6.15;;;4.53;;
10463;SDS011;5279;42.048;24.638;2023-06-22T08:50:53;5.15;;;4.72;;
10463;SDS011;5279;42.048;24.638;2023-06-22T08:53:21;4.75;;;4.35;;
10463;SDS011;5279;42.048;24.638;2023-06-22T08:55:48;4.70;;;4.30;;
10463;SDS011;5279;42.048;24.638;2023-06-22T08:58:15;4.97;;;4.47;;
10463;SDS011;5279;42.048;24.638;2023-06-22T09:00:43;5.18;;;4.68;;
10463;SDS011;5279;42.048;24.638;2023-06-22T09:03:10;5.53;;;5.03;;
10463;SDS011;5279;42.048;24.638;2023-06-22T09:05:37;4.90;;;4.50;;
10463;SDS011;5279;42.048;24.638;2023-06-22T09:08:04;5.95;;;4.28;;
10463;SDS011;5279;42.048;24.638;2023-06-22T09:10:32;4.65;;;4.25;;
10463;SDS011;5279;42.048;24.638;2023-06-22T09:12:59;4.70;;;4.30;;
10463;SDS011;5279;42.048;24.638;2023-06-22T09:15:26;6.10;;;4.57;;
10463;SDS011;5279;42.048;24.638;2023-06-22T09:17:52;4.97;;;4.57;;
10463;SDS011;5279;42.048;24.638;2023-06-22T09:20:20;5.22;;;4.40;;
10463;SDS011;5279;42.048;24.638;2023-06-22T09:22:47;4.65;;;4.25;;
10463;SDS011;5279;42.048;24.638;2023-06-22T09:25:14;4.75;;;4.25;;
10463;SDS011;5279;42.048;24.638;2023-06-22T09:27:42;5.57;;;4.35;;
10463;SDS011;5279;42.048;24.638;2023-06-22T09:30:09;4.80;;;4.40;;
10463;SDS011;5279;42.048;24.638;2023-06-22T09:32:37;4.43;;;4.13;;
10463;SDS011;5279;42.048;24.638;2023-06-22T09:35:04;5.40;;;4.32;;
10463;SDS011;5279;42.048;24.638;2023-06-22T09:37:33;4.55;;;4.15;;
10463;SDS011;5279;42.048;24.638;2023-06-22T09:40:01;6.38;;;4.25;;
10463;SDS011;5279;42.048;24.638;2023-06-22T09:42:32;4.50;;;4.10;;
10463;SDS011;5279;42.048;24.638;2023-06-22T09:45:01;4.72;;;4.32;;
10463;SDS011;5279;42.048;24.638;2023-06-22T09:47:28;5.00;;;4.60;;
10463;SDS011;5279;42.048;24.638;2023-06-22T09:49:55;6.97;;;4.38;;
10463;SDS011;5279;42.048;24.638;2023-06-22T09:52:25;4.70;;;4.30;;
10463;SDS011;5279;42.048;24.638;2023-06-22T09:54:52;4.95;;;4.55;;
10463;SDS011;5279;42.048;24.638;2023-06-22T09:57:19;4.85;;;4.45;;
10463;SDS011;5279;42.048;24.638;2023-06-22T09:59:45;4.60;;;4.20;;
10463;SDS011;5279;42.048;24.638;2023-06-22T10:02:14;4.63;;;4.22;;
10463;SDS011;5279;42.048;24.638;2023-06-22T10:04:41;4.80;;;4.40;;
10463;SDS011;5279;42.048;24.638;2023-06-22T10:07:07;4.93;;;4.43;;
10463;SDS011;5279;42.048;24.638;2023-06-22T10:09:34;4.78;;;4.38;;
10463;SDS011;5279;42.048;24.638;2023-06-22T10:12:01;4.75;;;4.35;;
10463;SDS011;5279;42.048;24.638;2023-06-22T10:14:28;5.40;;;4.90;;
10463;SDS011;5279;42.048;24.638;2023-06-22T10:16:55;8.23;;;6.72;;
10463;SDS011;5279;42.048;24.638;2023-06-22T10:19:23;8.07;;;6.22;;
10463;SDS011;5279;42.048;24.638;2023-06-22T10:21:50;5.68;;;4.85;;
10463;SDS011;5279;42.048;24.638;2023-06-22T10:24:17;5.13;;;4.50;;
10463;SDS011;5279;42.048;24.638;2023-06-22T10:26:45;4.90;;;4.47;;
10463;SDS011;5279;42.048;24.638;2023-06-22T10:29:12;5.72;;;4.28;;
10463;SDS011;5279;42.048;24.638;2023-06-22T10:31:39;6.50;;;4.60;;
10463;SDS011;5279;42.048;24.638;2023-06-22T10:34:06;4.65;;;4.25;;
10463;SDS011;5279;42.048;24.638;2023-06-22T10:36:34;5.00;;;4.60;;
10463;SDS011;5279;42.048;24.638;2023-06-22T10:39:01;4.55;;;4.15;;
10463;SDS011;5279;42.048;24.638;2023-06-22T10:41:28;4.32;;;4.03;;
10463;SDS011;5279;42.048;24.638;2023-06-22T10:43:56;4.75;;;4.30;;
10463;SDS011;5279;42.048;24.638;2023-06-22T10:46:23;4.55;;;4.15;;
10463;SDS011;5279;42.048;24.638;2023-06-22T10:48:51;5.18;;;4.40;;
10463;SDS011;5279;42.048;24.638;2023-06-22T10:51:20;5.80;;;4.30;;
10463;SDS011;5279;42.048;24.638;2023-06-22T10:53:48;4.57;;;4.25;;
10463;SDS011;5279;42.048;24.638;2023-06-22T10:56:16;4.60;;;4.18;;
10463;SDS011;5279;42.048;24.638;2023-06-22T10:58:44;4.85;;;4.45;;
10463;SDS011;5279;42.048;24.638;2023-06-22T11:01:11;4.78;;;4.28;;
10463;SDS011;5279;42.048;24.638;2023-06-22T11:03:38;4.13;;;3.83;;
10463;SDS011;5279;42.048;24.638;2023-06-22T11:06:05;4.65;;;4.25;;
10463;SDS011;5279;42.048;24.638;2023-06-22T11:08:31;4.40;;;4.00;;
10463;SDS011;5279;42.048;24.638;2023-06-22T11:11:00;4.18;;;3.88;;
10463;SDS011;5279;42.048;24.638;2023-06-22T11:13:27;4.97;;;3.80;;
10463;SDS011;5279;42.048;24.638;2023-06-22T11:15:53;4.68;;;4.28;;
10463;SDS011;5279;42.048;24.638;2023-06-22T11:18:20;5.13;;;4.63;;
10463;SDS011;5279;42.048;24.638;2023-06-22T11:20:48;4.43;;;4.10;;
10463;SDS011;5279;42.048;24.638;2023-06-22T11:23:15;4.72;;;4.32;;
10463;SDS011;5279;42.048;24.638;2023-06-22T11:25:42;4.38;;;4.00;;
10463;SDS011;5279;42.048;24.638;2023-06-22T11:28:10;5.03;;;4.38;;
10463;SDS011;5279;42.048;24.638;2023-06-22T11:30:37;4.97;;;4.57;;
10463;SDS011;5279;42.048;24.638;2023-06-22T11:33:04;5.80;;;5.18;;
10463;SDS011;5279;42.048;24.638;2023-06-22T11:35:31;4.53;;;4.22;;
10463;SDS011;5279;42.048;24.638;2023-06-22T11:37:57;4.50;;;4.07;;
10463;SDS011;5279;42.048;24.638;2023-06-22T11:40:24;5.10;;;4.60;;
10463;SDS011;5279;42.048;24.638;2023-06-22T11:42:51;5.03;;;4.60;;
10463;SDS011;5279;42.048;24.638;2023-06-22T11:45:19;5.95;;;4.75;;
10463;SDS011;5279;42.048;24.638;2023-06-22T11:47:46;5.20;;;4.60;;
10463;SDS011;5279;42.048;24.638;2023-06-22T11:50:13;5.82;;;5.22;;
10463;SDS011;5279;42.048;24.638;2023-06-22T11:52:40;7.03;;;4.97;;
10463;SDS011;5279;42.048;24.638;2023-06-22T11:55:07;5.38;;;4.88;;
10463;SDS011;5279;42.048;24.638;2023-06-22T11:57:35;5.53;;;4.60;;
10463;SDS011;5279;42.048;24.638;2023-06-22T12:00:03;5.43;;;4.78;;
10463;SDS011;5279;42.048;24.638;2023-06-22T12:02:40;5.35;;;4.88;;
10463;SDS011;5279;42.048;24.638;2023-06-22T12:05:07;5.43;;;4.93;;
10463;SDS011;5279;42.048;24.638;2023-06-22T12:07:34;4.97;;;4.55;;
10463;SDS011;5279;42.048;24.638;2023-06-22T12:10:01;4.38;;;4.07;;
10463;SDS011;5279;42.048;24.638;2023-06-22T12:12:28;5.30;;;4.90;;
10463;SDS011;5279;42.048;24.638;2023-06-22T12:14:55;6.95;;;4.53;;
10463;SDS011;5279;42.048;24.638;2023-06-22T12:17:22;5.07;;;4.60;;
10463;SDS011;5279;42.048;24.638;2023-06-22T12:19:50;5.00;;;4.60;;
10463;SDS011;5279;42.048;24.638;2023-06-22T12:22:17;5.00;;;4.55;;
10463;SDS011;5279;42.048;24.638;2023-06-22T12:24:44;4.75;;;4.35;;
10463;SDS011;5279;42.048;24.638;2023-06-22T12:27:11;4.80;;;4.40;;
10463;SDS011;5279;42.048;24.638;2023-06-22T12:29:37;5.10;;;4.60;;
10463;SDS011;5279;42.048;24.638;2023-06-22T12:32:05;4.75;;;4.35;;
10463;SDS011;5279;42.048;24.638;2023-06-22T12:34:32;4.90;;;4.50;;
10463;SDS011;5279;42.048;24.638;2023-06-22T12:37:00;4.88;;;4.47;;
10463;SDS011;5279;42.048;24.638;2023-06-22T12:39:27;4.82;;;4.43;;
10463;SDS011;5279;42.048;24.638;2023-06-22T12:41:54;4.93;;;4.53;;
10463;SDS011;5279;42.048;24.638;2023-06-22T12:44:21;5.50;;;5.00;;
10463;SDS011;5279;42.048;24.638;2023-06-22T12:46:47;4.97;;;4.55;;
10463;SDS011;5279;42.048;24.638;2023-06-22T12:49:14;4.55;;;4.20;;
10463;SDS011;5279;42.048;24.638;2023-06-22T12:51:41;5.00;;;4.55;;
10463;SDS011;5279;42.048;24.638;2023-06-22T12:54:11;4.72;;;4.32;;
10463;SDS011;5279;42.048;24.638;2023-06-22T12:56:38;4.88;;;4.47;;
10463;SDS011;5279;42.048;24.638;2023-06-22T12:59:05;5.93;;;4.47;;
10463;SDS011;5279;42.048;24.638;2023-06-22T13:01:32;5.13;;;4.72;;
10463;SDS011;5279;42.048;24.638;2023-06-22T13:03:59;4.85;;;4.45;;
10463;SDS011;5279;42.048;24.638;2023-06-22T13:06:26;4.63;;;4.22;;
10463;SDS011;5279;42.048;24.638;2023-06-22T13:08:53;5.55;;;5.10;;
10463;SDS011;5279;42.048;24.638;2023-06-22T13:11:21;5.13;;;4.60;;
10463;SDS011;5279;42.048;24.638;2023-06-22T13:13:48;5.65;;;5.15;;
10463;SDS011;5279;42.048;24.638;2023-06-22T13:16:15;5.68;;;4.65;;
10463;SDS011;5279;42.048;24.638;2023-06-22T13:18:41;7.32;;;5.13;;
10463;SDS011;5279;42.048;24.638;2023-06-22T13:21:08;5.53;;;5.00;;
10463;SDS011;5279;42.048;24.638;2023-06-22T13:23:35;5.75;;;4.72;;
10463;SDS011;5279;42.048;24.638;2023-06-22T13:26:02;5.63;;;5.00;;
10463;SDS011;5279;42.048;24.638;2023-06-22T13:28:30;5.85;;;5.25;;
10463;SDS011;5279;42.048;24.638;2023-06-22T13:30:57;5.60;;;5.07;;
10463;SDS011;5279;42.048;24.638;2023-06-22T13:33:24;5.65;;;4.88;;
10463;SDS011;5279;42.048;24.638;2023-06-22T13:35:51;5.65;;;5.15;;
10463;SDS011;5279;42.048;24.638;2023-06-22T13:38:18;5.88;;;5.38;;
10463;SDS011;5279;42.048;24.638;2023-06-22T13:40:45;6.15;;;5.15;;
10463;SDS011;5279;42.048;24.638;2023-06-22T13:43:12;5.68;;;5.07;;
10463;SDS011;5279;42.048;24.638;2023-06-22T13:45:41;5.90;;;5.40;;
10463;SDS011;5279;42.048;24.638;2023-06-22T13:48:08;6.40;;;5.55;;
10463;SDS011;5279;42.048;24.638;2023-06-22T13:50:35;5.93;;;5.40;;
10463;SDS011;5279;42.048;24.638;2023-06-22T13:53:02;5.72;;;5.18;;
10463;SDS011;5279;42.048;24.638;2023-06-22T13:55:29;5.75;;;5.25;;
10463;SDS011;5279;42.048;24.638;2023-06-22T13:57:56;5.75;;;5.18;;
10463;SDS011;5279;42.048;24.638;2023-06-22T14:00:23;5.80;;;5.30;;
10463;SDS011;5279;42.048;24.638;2023-06-22T14:02:51;5.38;;;4.95;;
10463;SDS011;5279;42.048;24.638;2023-06-22T14:05:18;5.47;;;4.97;;
10463;SDS011;5279;42.048;24.638;2023-06-22T14:07:45;6.05;;;5.45;;
10463;SDS011;5279;42.048;24.638;2023-06-22T14:10:12;5.93;;;5.43;;
10463;SDS011;5279;42.048;24.638;2023-06-22T14:12:38;5.75;;;5.25;;
10463;SDS011;5279;42.048;24.638;2023-06-22T14:15:05;6.10;;;5.60;;
10463;SDS011;5279;42.048;24.638;2023-06-22T14:17:33;5.88;;;5.38;;
10463;SDS011;5279;42.048;24.638;2023-06-22T14:20:01;5.32;;;4.93;;
10463;SDS011;5279;42.048;24.638;2023-06-22T14:22:30;5.72;;;5.22;;
10463;SDS011;5279;42.048;24.638;2023-06-22T14:24:57;4.93;;;4.53;;
10463;SDS011;5279;42.048;24.638;2023-06-22T14:27:24;6.18;;;5.25;;
10463;SDS011;5279;42.048;24.638;2023-06-22T14:29:51;6.20;;;5.65;;
10463;SDS011;5279;42.048;24.638;2023-06-22T14:32:18;6.20;;;5.60;;
10463;SDS011;5279;42.048;24.638;2023-06-22T14:34:45;7.03;;;6.03;;
10463;SDS011;5279;42.048;24.638;2023-06-22T14:37:13;6.97;;;6.35;;
10463;SDS011;5279;42.048;24.638;2023-06-22T14:39:40;6.10;;;5.50;;
10463;SDS011;5279;42.048;24.638;2023-06-22T14:42:08;8.10;;;5.57;;
10463;SDS011;5279;42.048;24.638;2023-06-22T14:44:35;6.50;;;5.90;;
10463;SDS011;5279;42.048;24.638;2023-06-22T14:47:02;6.37;;;5.77;;
10463;SDS011;5279;42.048;24.638;2023-06-22T14:49:29;6.10;;;5.50;;
10463;SDS011;5279;42.048;24.638;2023-06-22T14:51:56;5.97;;;5.47;;
10463;SDS011;5279;42.048;24.638;2023-06-22T14:54:24;6.10;;;5.50;;